TimeCDT,TemperatureF,Dew PointF,Humidity,Sea Level PressureIn,VisibilityMPH,Wind Direction,Wind SpeedMPH,Gust SpeedMPH,PrecipitationIn,Events,Conditions,WindDirDegrees,DateUTC
2:55 AM,64.0,58.1,81,30.20,10.0,SW,9.2,-,N/A,,Unknown,220,2013-07-31 07:55:00
2:56 AM,64.4,57.2,77,30.19,10.0,SSW,9.2,-,N/A,,Unknown,210,2013-07-31 07:56:00
3:15 AM,64.6,57.6,78,30.18,10.0,SSW,12.7,17.3,N/A,,Clear,200,2013-07-31 08:15:00
3:36 AM,64.4,55.4,73,30.16,10.0,SSW,12.7,-,N/A,,Clear,200,2013-07-31 08:36:00
3:55 AM,64.8,56.5,74,30.17,10.0,SSW,12.7,-,N/A,,Clear,210,2013-07-31 08:55:00
4:36 AM,-9999,-9999,N/A,30.18,-9999.0,SW,10.4,-,N/A,,Unknown,230,2013-07-31 09:36:00
4:55 AM,64.6,57.7,78,30.17,10.0,SW,9.2,-,N/A,,Unknown,230,2013-07-31 09:55:00
5:15 AM,64.8,57.7,78,30.18,10.0,SW,6.9,-,N/A,,Scattered Clouds,230,2013-07-31 10:15:00
5:35 AM,64.8,56.8,75,30.19,10.0,West,8.1,-,N/A,,Mostly Cloudy,260,2013-07-31 10:35:00
5:55 AM,65.1,56.3,73,30.20,10.0,West,5.8,-,N/A,,Scattered Clouds,280,2013-07-31 10:55:00
6:15 AM,63.5,56.8,79,30.20,10.0,NNW,4.6,-,N/A,,Scattered Clouds,330,2013-07-31 11:15:00
6:35 AM,63.7,57.4,80,30.21,10.0,NW,12.7,-,N/A,,Clear,320,2013-07-31 11:35:00
7:15 AM,64.4,58.1,80,30.22,10.0,Calm,Calm,-,N/A,,Unknown,0,2013-07-31 12:15:00
7:35 AM,64.8,58.8,81,30.22,10.0,West,3.5,-,N/A,,Clear,260,2013-07-31 12:35:00
7:55 AM,66.2,59.0,78,30.21,10.0,WSW,6.9,-,N/A,,Clear,240,2013-07-31 12:55:00
8:15 AM,68.0,58.8,72,30.22,10.0,West,5.8,-,N/A,,Clear,270,2013-07-31 13:15:00
8:35 AM,68.5,59.2,72,30.22,10.0,WNW,6.9,-,N/A,,Clear,290,2013-07-31 13:35:00
8:55 AM,69.6,58.8,68,30.22,10.0,WNW,9.2,-,N/A,,Clear,290,2013-07-31 13:55:00
9:15 AM,70.7,59.4,67,30.22,10.0,WNW,9.2,-,N/A,,Clear,290,2013-07-31 14:15:00
9:35 AM,72.1,60.6,67,30.22,10.0,West,10.4,-,N/A,,Clear,280,2013-07-31 14:35:00
9:55 AM,73.8,62.1,67,30.23,10.0,WNW,8.1,-,N/A,,Clear,290,2013-07-31 14:55:00
10:15 AM,74.3,62.2,66,30.24,10.0,NW,8.1,-,N/A,,Clear,310,2013-07-31 15:15:00
10:35 AM,74.5,62.4,66,30.24,10.0,WNW,6.9,-,N/A,,Clear,300,2013-07-31 15:35:00
10:55 AM,75.4,63.0,65,30.24,10.0,NNW,9.2,-,N/A,,Clear,330,2013-07-31 15:55:00
11:15 AM,75.7,63.0,64,30.24,10.0,NNW,6.9,-,N/A,,Scattered Clouds,330,2013-07-31 16:15:00
11:35 AM,77.7,63.9,62,30.23,10.0,NW,6.9,-,N/A,,Scattered Clouds,310,2013-07-31 16:35:00
11:55 AM,77.5,62.2,59,30.24,10.0,NNE,8.1,-,N/A,,Mostly Cloudy,20,2013-07-31 16:55:00
12:15 PM,76.5,62.1,61,30.24,10.0,North,6.9,-,N/A,,Overcast,10,2013-07-31 17:15:00
12:35 PM,76.6,62.6,62,30.24,10.0,NNE,6.9,-,N/A,,Overcast,20,2013-07-31 17:35:00
12:55 PM,78.8,62.6,57,30.23,10.0,NNE,8.1,-,N/A,,Mostly Cloudy,20,2013-07-31 17:55:00
1:15 PM,78.8,61.7,56,30.23,10.0,NNE,6.9,-,N/A,,Scattered Clouds,30,2013-07-31 18:15:00
1:35 PM,79.0,61.3,55,30.23,10.0,North,6.9,-,N/A,,Scattered Clouds,360,2013-07-31 18:35:00
1:55 PM,79.5,60.8,53,30.22,10.0,NNE,4.6,-,N/A,,Scattered Clouds,20,2013-07-31 18:55:00
2:15 PM,79.7,61.0,53,30.22,10.0,NE,6.9,-,N/A,,Scattered Clouds,40,2013-07-31 19:15:00
2:35 PM,80.2,61.5,53,30.22,10.0,ENE,6.9,-,N/A,,Scattered Clouds,60,2013-07-31 19:35:00
2:55 PM,79.7,61.3,53,30.21,10.0,NNE,8.1,-,N/A,,Mostly Cloudy,20,2013-07-31 19:55:00
3:15 PM,81.0,61.0,50,30.21,10.0,NE,5.8,-,N/A,,Scattered Clouds,50,2013-07-31 20:15:00
3:35 PM,81.1,61.0,50,30.21,10.0,ENE,5.8,-,N/A,,Scattered Clouds,70,2013-07-31 20:35:00
3:55 PM,79.5,60.3,52,30.21,10.0,NNE,3.5,-,N/A,,Mostly Cloudy,30,2013-07-31 20:55:00
4:15 PM,81.0,60.1,49,30.20,10.0,NNE,3.5,-,N/A,,Scattered Clouds,20,2013-07-31 21:15:00
4:35 PM,81.7,61.2,50,30.19,10.0,NE,6.9,-,N/A,,Scattered Clouds,50,2013-07-31 21:35:00
4:55 PM,81.7,59.7,47,30.19,10.0,East,4.6,-,N/A,,Clear,90,2013-07-31 21:55:00
5:15 PM,79.5,59.4,50,30.19,10.0,North,4.6,-,N/A,,Scattered Clouds,10,2013-07-31 22:15:00
5:35 PM,81.1,59.0,47,30.17,10.0,ENE,4.6,-,N/A,,Clear,60,2013-07-31 22:35:00
5:55 PM,81.5,58.3,45,30.17,10.0,NNE,3.5,-,N/A,,Clear,30,2013-07-31 22:55:00
6:15 PM,81.1,58.5,46,30.16,10.0,Calm,Calm,-,N/A,,Scattered Clouds,0,2013-07-31 23:15:00
6:35 PM,81.1,59.5,48,30.16,10.0,ENE,5.8,-,N/A,,Scattered Clouds,60,2013-07-31 23:35:00
6:55 PM,78.6,60.8,54,30.16,10.0,ENE,4.6,-,N/A,,Scattered Clouds,60,2013-07-31 23:55:00
7:15 PM,78.3,60.3,54,30.16,10.0,NE,5.8,-,N/A,,Clear,50,2013-08-01 00:15:00
7:35 PM,79.3,59.0,50,30.17,10.0,NE,5.8,-,N/A,,Clear,50,2013-08-01 00:35:00
7:55 PM,78.6,60.3,53,30.17,10.0,East,5.8,-,N/A,,Clear,80,2013-08-01 00:55:00
8:15 PM,77.0,60.3,56,30.17,10.0,East,6.9,-,N/A,,Clear,90,2013-08-01 01:15:00
8:35 PM,73.9,60.6,63,30.18,10.0,East,4.6,-,N/A,,Clear,90,2013-08-01 01:35:00
8:55 PM,73.2,61.2,66,30.19,10.0,ESE,3.5,-,N/A,,Clear,120,2013-08-01 01:55:00
9:15 PM,71.8,62.4,72,30.19,10.0,SE,3.5,-,N/A,,Clear,140,2013-08-01 02:15:00
9:35 PM,70.5,61.7,74,30.19,10.0,ESE,4.6,-,N/A,,Clear,120,2013-08-01 02:35:00
9:55 PM,71.1,61.5,72,30.20,10.0,SE,3.5,-,N/A,,Clear,140,2013-08-01 02:55:00
10:15 PM,70.7,61.3,72,30.20,10.0,SSE,3.5,-,N/A,,Clear,150,2013-08-01 03:15:00
10:35 PM,69.8,61.0,73,30.20,10.0,SE,4.6,-,N/A,,Clear,140,2013-08-01 03:35:00
10:55 PM,69.6,61.0,74,30.20,10.0,SE,4.6,-,N/A,,Clear,140,2013-08-01 03:55:00
11:15 PM,68.9,60.8,75,30.20,10.0,SE,5.8,-,N/A,,Clear,130,2013-08-01 04:15:00
11:35 PM,70.9,59.2,66,30.20,10.0,SSE,8.1,-,N/A,,Clear,160,2013-08-01 04:35:00
11:55 PM,69.3,60.8,74,30.17,10.0,SE,6.9,-,N/A,,Scattered Clouds,140,2013-08-01 04:55:00